sensor_id;sensor_type;location;lat;lon;timestamp;pressure;altitude;pressure_sealevel;temperature;humidity
57452;BME280;66031;51.224;-0.164;2023-02-28T00:00:04;102390.70;;;19.92;28.29
57452;BME280;66031;51.224;-0.164;2023-02-28T00:02:28;102396.74;;;20.25;27.96
57452;BME280;66031;51.224;-0.164;2023-02-28T00:04:53;102397.68;;;20.31;28.06
57452;BME280;66031;51.224;-0.164;2023-02-28T00:07:18;102395.32;;;20.20;28.10
57452;BME280;66031;51.224;-0.164;2023-02-28T00:09:44;102400.31;;;19.96;28.13
57452;BME280;66031;51.224;-0.164;2023-02-28T00:12:09;102406.69;;;20.13;28.18
57452;BME280;66031;51.224;-0.164;2023-02-28T00:14:34;102399.99;;;20.05;28.20
57452;BME280;66031;51.224;-0.164;2023-02-28T00:16:59;102400.80;;;19.72;28.26
57452;BME280;66031;51.224;-0.164;2023-02-28T00:19:25;102401.53;;;20.11;28.07
57452;BME280;66031;51.224;-0.164;2023-02-28T00:21:50;102403.03;;;20.05;28.07
57452;BME280;66031;51.224;-0.164;2023-02-28T00:24:15;102397.31;;;19.86;28.25
57452;BME280;66031;51.224;-0.164;2023-02-28T00:26:41;102397.64;;;20.13;28.22
57452;BME280;66031;51.224;-0.164;2023-02-28T00:29:06;102399.19;;;20.07;28.25
57452;BME280;66031;51.224;-0.164;2023-02-28T00:31:32;102399.95;;;19.86;28.18
57452;BME280;66031;51.224;-0.164;2023-02-28T00:33:57;102398.26;;;19.79;28.24
57452;BME280;66031;51.224;-0.164;2023-02-28T00:36:22;102400.46;;;19.79;28.20
57452;BME280;66031;51.224;-0.164;2023-02-28T00:38:47;102398.31;;;19.98;28.22
57452;BME280;66031;51.224;-0.164;2023-02-28T00:41:13;102395.46;;;19.94;28.24
57452;BME280;66031;51.224;-0.164;2023-02-28T00:43:39;102404.34;;;19.90;28.23
57452;BME280;66031;51.224;-0.164;2023-02-28T00:46:04;102403.00;;;19.67;28.21
57452;BME280;66031;51.224;-0.164;2023-02-28T00:48:29;102398.53;;;19.84;28.26
57452;BME280;66031;51.224;-0.164;2023-02-28T00:50:54;102405.00;;;19.84;28.22
57452;BME280;66031;51.224;-0.164;2023-02-28T00:53:20;102402.05;;;19.86;28.18
57452;BME280;66031;51.224;-0.164;2023-02-28T00:55:45;102402.77;;;19.79;28.25
57452;BME280;66031;51.224;-0.164;2023-02-28T00:58:10;102404.75;;;19.77;28.23
57452;BME280;66031;51.224;-0.164;2023-02-28T01:00:35;102405.27;;;19.76;28.19
57452;BME280;66031;51.224;-0.164;2023-02-28T01:03:01;102401.93;;;19.65;28.29
57452;BME280;66031;51.224;-0.164;2023-02-28T01:05:26;102406.00;;;19.72;28.21
57452;BME280;66031;51.224;-0.164;2023-02-28T01:07:51;102406.91;;;19.64;28.25
57452;BME280;66031;51.224;-0.164;2023-02-28T01:10:17;102412.87;;;19.57;28.28
57452;BME280;66031;51.224;-0.164;2023-02-28T01:12:42;102412.52;;;19.40;28.20
57452;BME280;66031;51.224;-0.164;2023-02-28T01:15:10;102410.18;;;19.36;28.20
57452;BME280;66031;51.224;-0.164;2023-02-28T01:17:33;102412.30;;;19.64;28.12
57452;BME280;66031;51.224;-0.164;2023-02-28T01:19:58;102416.97;;;19.70;28.05
57452;BME280;66031;51.224;-0.164;2023-02-28T01:22:23;102421.06;;;19.85;28.07
57452;BME280;66031;51.224;-0.164;2023-02-28T01:24:49;102425.07;;;19.58;28.11
57452;BME280;66031;51.224;-0.164;2023-02-28T01:27:14;102426.57;;;19.54;28.11
57452;BME280;66031;51.224;-0.164;2023-02-28T01:29:40;102426.03;;;19.43;28.21
57452;BME280;66031;51.224;-0.164;2023-02-28T01:32:05;102424.40;;;19.46;28.13
57452;BME280;66031;51.224;-0.164;2023-02-28T01:34:30;102424.10;;;19.45;28.12
57452;BME280;66031;51.224;-0.164;2023-02-28T01:36:55;102422.88;;;19.41;28.14
57452;BME280;66031;51.224;-0.164;2023-02-28T01:39:21;102426.61;;;19.39;28.15
57452;BME280;66031;51.224;-0.164;2023-02-28T01:41:46;102423.25;;;19.37;28.18
57452;BME280;66031;51.224;-0.164;2023-02-28T01:46:37;102421.58;;;19.29;28.17
57452;BME280;66031;51.224;-0.164;2023-02-28T01:49:06;102421.52;;;19.31;28.14
57452;BME280;66031;51.224;-0.164;2023-02-28T01:51:30;102424.65;;;19.30;28.14
57452;BME280;66031;51.224;-0.164;2023-02-28T01:53:56;102420.11;;;19.28;28.15
57452;BME280;66031;51.224;-0.164;2023-02-28T01:56:22;102419.22;;;19.24;28.14
57452;BME280;66031;51.224;-0.164;2023-02-28T01:58:44;102413.18;;;19.20;28.12
57452;BME280;66031;51.224;-0.164;2023-02-28T02:01:09;102415.78;;;19.17;28.14
57452;BME280;66031;51.224;-0.164;2023-02-28T02:03:35;102414.66;;;19.40;28.18
57452;BME280;66031;51.224;-0.164;2023-02-28T02:06:00;102415.63;;;19.10;28.18
57452;BME280;66031;51.224;-0.164;2023-02-28T02:08:28;102423.43;;;18.91;28.13
57452;BME280;66031;51.224;-0.164;2023-02-28T02:10:53;102426.57;;;19.11;28.13
57452;BME280;66031;51.224;-0.164;2023-02-28T02:13:28;102428.03;;;19.60;28.12
57452;BME280;66031;51.224;-0.164;2023-02-28T02:15:47;102425.50;;;19.14;28.06
57452;BME280;66031;51.224;-0.164;2023-02-28T02:18:13;102433.92;;;19.01;27.97
57452;BME280;66031;51.224;-0.164;2023-02-28T02:20:43;102429.72;;;19.31;27.85
57452;BME280;66031;51.224;-0.164;2023-02-28T02:25:28;102424.56;;;19.12;27.97
57452;BME280;66031;51.224;-0.164;2023-02-28T02:28:04;102424.44;;;19.07;28.02
57452;BME280;66031;51.224;-0.164;2023-02-28T02:30:22;102427.08;;;19.01;28.07
57452;BME280;66031;51.224;-0.164;2023-02-28T02:35:12;102421.27;;;19.47;28.06
57452;BME280;66031;51.224;-0.164;2023-02-28T02:37:35;102415.83;;;19.13;28.10
57452;BME280;66031;51.224;-0.164;2023-02-28T02:40:01;102416.37;;;19.16;28.06
57452;BME280;66031;51.224;-0.164;2023-02-28T02:42:25;102416.62;;;19.15;28.09
57452;BME280;66031;51.224;-0.164;2023-02-28T02:44:48;102413.84;;;19.09;28.10
57452;BME280;66031;51.224;-0.164;2023-02-28T02:47:14;102415.21;;;18.79;28.13
57452;BME280;66031;51.224;-0.164;2023-02-28T02:49:38;102420.75;;;18.84;28.08
57452;BME280;66031;51.224;-0.164;2023-02-28T02:52:04;102418.74;;;18.83;28.01
57452;BME280;66031;51.224;-0.164;2023-02-28T02:54:28;102413.47;;;19.06;28.04
57452;BME280;66031;51.224;-0.164;2023-02-28T02:56:52;102408.45;;;18.79;28.04
57452;BME280;66031;51.224;-0.164;2023-02-28T02:59:21;102408.98;;;18.99;28.08
57452;BME280;66031;51.224;-0.164;2023-02-28T03:01:43;102409.84;;;18.91;28.12
57452;BME280;66031;51.224;-0.164;2023-02-28T03:04:11;102414.50;;;18.93;28.05
57452;BME280;66031;51.224;-0.164;2023-02-28T03:06:34;102419.72;;;19.15;28.04
57452;BME280;66031;51.224;-0.164;2023-02-28T03:09:00;102418.17;;;19.17;28.01
57452;BME280;66031;51.224;-0.164;2023-02-28T03:11:24;102419.10;;;18.80;27.86
57452;BME280;66031;51.224;-0.164;2023-02-28T03:13:56;102423.84;;;18.75;27.94
57452;BME280;66031;51.224;-0.164;2023-02-28T03:16:23;102432.32;;;19.20;27.91
57452;BME280;66031;51.224;-0.164;2023-02-28T03:18:43;102431.75;;;18.82;27.81
57452;BME280;66031;51.224;-0.164;2023-02-28T03:21:13;102432.33;;;18.75;27.84
57452;BME280;66031;51.224;-0.164;2023-02-28T03:23:38;102428.23;;;18.99;27.76
57452;BME280;66031;51.224;-0.164;2023-02-28T03:26:00;102432.82;;;18.67;27.87
57452;BME280;66031;51.224;-0.164;2023-02-28T03:28:30;102431.14;;;18.64;27.88
57452;BME280;66031;51.224;-0.164;2023-02-28T03:30:51;102435.42;;;19.00;27.99
57452;BME280;66031;51.224;-0.164;2023-02-28T03:33:15;102436.82;;;18.75;27.97
57452;BME280;66031;51.224;-0.164;2023-02-28T03:35:41;102438.11;;;18.92;28.05
57452;BME280;66031;51.224;-0.164;2023-02-28T03:38:06;102434.21;;;18.91;28.03
57452;BME280;66031;51.224;-0.164;2023-02-28T03:40:33;102432.14;;;18.66;27.94
57452;BME280;66031;51.224;-0.164;2023-02-28T03:42:58;102427.04;;;18.83;28.09
57452;BME280;66031;51.224;-0.164;2023-02-28T03:45:22;102429.53;;;18.86;28.03
57452;BME280;66031;51.224;-0.164;2023-02-28T03:47:50;102428.09;;;18.58;28.04
57452;BME280;66031;51.224;-0.164;2023-02-28T03:50:14;102434.02;;;18.60;28.03
57452;BME280;66031;51.224;-0.164;2023-02-28T03:52:40;102440.84;;;18.53;28.03
57452;BME280;66031;51.224;-0.164;2023-02-28T03:55:05;102440.67;;;18.57;28.01
57452;BME280;66031;51.224;-0.164;2023-02-28T03:57:33;102440.26;;;18.53;28.04
57452;BME280;66031;51.224;-0.164;2023-02-28T03:59:56;102442.60;;;18.77;28.02
57452;BME280;66031;51.224;-0.164;2023-02-28T04:02:17;102440.62;;;18.25;28.03
57452;BME280;66031;51.224;-0.164;2023-02-28T04:04:42;102436.76;;;18.76;27.96
57452;BME280;66031;51.224;-0.164;2023-02-28T04:07:08;102431.79;;;18.44;27.99
57452;BME280;66031;51.224;-0.164;2023-02-28T04:09:33;102431.78;;;18.70;27.97
57452;BME280;66031;51.224;-0.164;2023-02-28T04:11:59;102434.14;;;18.70;27.98
57452;BME280;66031;51.224;-0.164;2023-02-28T04:14:24;102437.92;;;18.66;28.00
57452;BME280;66031;51.224;-0.164;2023-02-28T04:16:49;102439.71;;;18.41;27.97
57452;BME280;66031;51.224;-0.164;2023-02-28T04:19:15;102443.03;;;18.85;27.78
57452;BME280;66031;51.224;-0.164;2023-02-28T04:21:41;102437.67;;;18.32;27.80
57452;BME280;66031;51.224;-0.164;2023-02-28T04:24:07;102432.76;;;18.51;27.81
57452;BME280;66031;51.224;-0.164;2023-02-28T04:26:32;102437.54;;;18.63;27.86
57452;BME280;66031;51.224;-0.164;2023-02-28T04:28:57;102443.91;;;18.59;27.93
57452;BME280;66031;51.224;-0.164;2023-02-28T04:31:22;102447.08;;;18.53;27.95
57452;BME280;66031;51.224;-0.164;2023-02-28T04:33:47;102450.31;;;18.50;27.98
57452;BME280;66031;51.224;-0.164;2023-02-28T04:36:12;102449.12;;;18.54;27.88
57452;BME280;66031;51.224;-0.164;2023-02-28T04:38:38;102455.46;;;18.49;27.93
57452;BME280;66031;51.224;-0.164;2023-02-28T04:41:03;102455.95;;;18.22;27.98
57452;BME280;66031;51.224;-0.164;2023-02-28T04:43:29;102453.85;;;18.73;27.92
57452;BME280;66031;51.224;-0.164;2023-02-28T04:45:54;102455.64;;;18.18;27.99
57452;BME280;66031;51.224;-0.164;2023-02-28T04:48:19;102456.87;;;18.40;27.98
57452;BME280;66031;51.224;-0.164;2023-02-28T04:50:45;102452.59;;;18.45;27.91
57452;BME280;66031;51.224;-0.164;2023-02-28T04:53:10;102453.02;;;18.48;27.87
57452;BME280;66031;51.224;-0.164;2023-02-28T04:55:35;102454.17;;;18.40;27.91
57452;BME280;66031;51.224;-0.164;2023-02-28T04:58:01;102451.07;;;18.44;27.87
57452;BME280;66031;51.224;-0.164;2023-02-28T05:00:27;102450.51;;;18.13;27.90
57452;BME280;66031;51.224;-0.164;2023-02-28T05:02:51;102450.29;;;18.20;27.83
57452;BME280;66031;51.224;-0.164;2023-02-28T05:05:17;102449.23;;;18.39;27.82
57452;BME280;66031;51.224;-0.164;2023-02-28T05:07:42;102449.87;;;18.34;27.86
57452;BME280;66031;51.224;-0.164;2023-02-28T05:10:09;102448.97;;;18.60;27.81
57452;BME280;66031;51.224;-0.164;2023-02-28T05:12:33;102458.07;;;18.55;27.87
57452;BME280;66031;51.224;-0.164;2023-02-28T05:14:59;102465.67;;;18.52;27.89
57452;BME280;66031;51.224;-0.164;2023-02-28T05:17:24;102464.47;;;18.31;27.80
57452;BME280;66031;51.224;-0.164;2023-02-28T05:19:49;102468.16;;;18.20;27.68
57452;BME280;66031;51.224;-0.164;2023-02-28T05:22:15;102473.79;;;18.54;27.78
57452;BME280;66031;51.224;-0.164;2023-02-28T05:24:41;102474.84;;;18.24;27.82
57452;BME280;66031;51.224;-0.164;2023-02-28T05:27:05;102471.70;;;18.17;27.88
57452;BME280;66031;51.224;-0.164;2023-02-28T05:29:31;102469.35;;;18.10;27.94
57452;BME280;66031;51.224;-0.164;2023-02-28T05:31:56;102470.42;;;18.07;27.93
57452;BME280;66031;51.224;-0.164;2023-02-28T05:34:22;102468.62;;;18.13;27.81
57452;BME280;66031;51.224;-0.164;2023-02-28T05:36:47;102468.86;;;18.29;27.59
57452;BME280;66031;51.224;-0.164;2023-02-28T05:39:12;102469.13;;;18.58;27.39
57452;BME280;66031;51.224;-0.164;2023-02-28T05:41:40;102469.90;;;18.73;27.24
57452;BME280;66031;51.224;-0.164;2023-02-28T05:44:03;102473.78;;;18.88;27.23
57452;BME280;66031;51.224;-0.164;2023-02-28T05:46:29;102476.76;;;19.20;27.25
57452;BME280;66031;51.224;-0.164;2023-02-28T05:48:54;102477.20;;;18.60;27.19
57452;BME280;66031;51.224;-0.164;2023-02-28T05:51:19;102478.11;;;19.09;27.00
57452;BME280;66031;51.224;-0.164;2023-02-28T05:53:45;102477.75;;;19.38;27.00
57452;BME280;66031;51.224;-0.164;2023-02-28T05:56:11;102482.12;;;19.50;26.93
57452;BME280;66031;51.224;-0.164;2023-02-28T05:58:36;102484.37;;;19.62;26.80
57452;BME280;66031;51.224;-0.164;2023-02-28T06:03:27;102484.59;;;19.53;26.76
57452;BME280;66031;51.224;-0.164;2023-02-28T06:05:52;102486.65;;;19.40;26.69
57452;BME280;66031;51.224;-0.164;2023-02-28T06:08:17;102486.98;;;19.74;26.60
57452;BME280;66031;51.224;-0.164;2023-02-28T06:10:42;102489.22;;;19.86;26.52
57452;BME280;66031;51.224;-0.164;2023-02-28T06:13:08;102492.78;;;19.83;26.34
57452;BME280;66031;51.224;-0.164;2023-02-28T06:15:33;102493.67;;;20.05;26.41
57452;BME280;66031;51.224;-0.164;2023-02-28T06:17:59;102491.32;;;19.96;26.26
57452;BME280;66031;51.224;-0.164;2023-02-28T06:20:25;102492.70;;;20.06;26.20
57452;BME280;66031;51.224;-0.164;2023-02-28T06:22:49;102496.38;;;20.08;26.22
57452;BME280;66031;51.224;-0.164;2023-02-28T06:25:14;102494.24;;;20.04;26.28
57452;BME280;66031;51.224;-0.164;2023-02-28T06:27:39;102492.97;;;20.27;26.09
57452;BME280;66031;51.224;-0.164;2023-02-28T06:30:06;102493.24;;;20.22;26.18
57452;BME280;66031;51.224;-0.164;2023-02-28T06:32:30;102489.65;;;20.20;26.20
57452;BME280;66031;51.224;-0.164;2023-02-28T06:34:56;102487.06;;;20.01;26.25
57452;BME280;66031;51.224;-0.164;2023-02-28T06:37:21;102488.78;;;20.27;26.20
57452;BME280;66031;51.224;-0.164;2023-02-28T06:39:46;102487.80;;;20.37;26.18
57452;BME280;66031;51.224;-0.164;2023-02-28T06:42:11;102483.51;;;20.44;26.14
57452;BME280;66031;51.224;-0.164;2023-02-28T06:44:38;102483.53;;;20.21;26.15
57452;BME280;66031;51.224;-0.164;2023-02-28T06:47:03;102483.08;;;20.32;26.05
57452;BME280;66031;51.224;-0.164;2023-02-28T06:49:27;102481.85;;;20.41;26.03
57452;BME280;66031;51.224;-0.164;2023-02-28T06:51:54;102480.77;;;20.55;25.92
57452;BME280;66031;51.224;-0.164;2023-02-28T06:54:19;102477.74;;;20.85;25.89
57452;BME280;66031;51.224;-0.164;2023-02-28T06:56:44;102479.91;;;20.92;25.85
57452;BME280;66031;51.224;-0.164;2023-02-28T06:59:09;102477.41;;;20.71;25.83
57452;BME280;66031;51.224;-0.164;2023-02-28T07:01:34;102480.31;;;20.79;25.77
57452;BME280;66031;51.224;-0.164;2023-02-28T07:04:01;102483.54;;;20.94;25.68
57452;BME280;66031;51.224;-0.164;2023-02-28T07:06:25;102482.88;;;20.87;25.74
57452;BME280;66031;51.224;-0.164;2023-02-28T07:08:51;102483.83;;;20.74;25.67
57452;BME280;66031;51.224;-0.164;2023-02-28T07:11:15;102480.38;;;21.07;25.62
57452;BME280;66031;51.224;-0.164;2023-02-28T07:13:41;102479.76;;;21.11;25.67
57452;BME280;66031;51.224;-0.164;2023-02-28T07:16:09;102481.65;;;21.33;25.65
57452;BME280;66031;51.224;-0.164;2023-02-28T07:18:31;102483.46;;;21.22;25.57
57452;BME280;66031;51.224;-0.164;2023-02-28T07:20:57;102483.64;;;21.38;25.75
57452;BME280;66031;51.224;-0.164;2023-02-28T07:23:22;102485.69;;;21.47;25.49
57452;BME280;66031;51.224;-0.164;2023-02-28T07:25:47;102489.07;;;21.69;25.28
57452;BME280;66031;51.224;-0.164;2023-02-28T07:28:13;102493.99;;;21.71;25.21
57452;BME280;66031;51.224;-0.164;2023-02-28T07:30:38;102493.66;;;21.71;25.26
57452;BME280;66031;51.224;-0.164;2023-02-28T07:33:03;102494.58;;;21.70;25.28
57452;BME280;66031;51.224;-0.164;2023-02-28T07:35:28;102496.59;;;21.79;25.25
57452;BME280;66031;51.224;-0.164;2023-02-28T07:37:54;102502.97;;;21.76;25.46
57452;BME280;66031;51.224;-0.164;2023-02-28T07:40:19;102498.06;;;21.34;25.21
57452;BME280;66031;51.224;-0.164;2023-02-28T07:42:45;102497.27;;;21.90;25.31
57452;BME280;66031;51.224;-0.164;2023-02-28T07:45:10;102496.61;;;21.59;25.48
57452;BME280;66031;51.224;-0.164;2023-02-28T07:47:34;102494.75;;;21.55;25.35
57452;BME280;66031;51.224;-0.164;2023-02-28T07:50:00;102499.35;;;21.15;25.22
57452;BME280;66031;51.224;-0.164;2023-02-28T07:52:25;102500.93;;;21.55;25.50
57452;BME280;66031;51.224;-0.164;2023-02-28T07:54:51;102496.98;;;21.82;25.21
57452;BME280;66031;51.224;-0.164;2023-02-28T07:57:16;102504.73;;;21.43;25.10
57452;BME280;66031;51.224;-0.164;2023-02-28T07:59:42;102506.87;;;21.79;24.98
57452;BME280;66031;51.224;-0.164;2023-02-28T08:02:10;102509.14;;;21.72;25.16
57452;BME280;66031;51.224;-0.164;2023-02-28T08:04:32;102509.02;;;22.00;24.96
57452;BME280;66031;51.224;-0.164;2023-02-28T08:06:57;102511.38;;;21.83;24.94
57452;BME280;66031;51.224;-0.164;2023-02-28T08:09:23;102507.02;;;21.52;24.97
57452;BME280;66031;51.224;-0.164;2023-02-28T08:11:47;102506.78;;;21.72;25.01
57452;BME280;66031;51.224;-0.164;2023-02-28T08:14:13;102509.61;;;21.67;25.01
57452;BME280;66031;51.224;-0.164;2023-02-28T08:16:38;102506.47;;;21.53;24.92
57452;BME280;66031;51.224;-0.164;2023-02-28T08:19:03;102506.74;;;21.90;24.75
57452;BME280;66031;51.224;-0.164;2023-02-28T08:21:29;102507.88;;;23.57;23.32
57452;BME280;66031;51.224;-0.164;2023-02-28T08:23:54;102505.60;;;23.07;23.48
57452;BME280;66031;51.224;-0.164;2023-02-28T08:26:19;102500.99;;;23.03;23.61
57452;BME280;66031;51.224;-0.164;2023-02-28T08:28:45;102505.50;;;22.65;23.89
57452;BME280;66031;51.224;-0.164;2023-02-28T08:31:11;102499.92;;;22.54;23.92
57452;BME280;66031;51.224;-0.164;2023-02-28T08:33:35;102498.56;;;22.44;23.91
57452;BME280;66031;51.224;-0.164;2023-02-28T08:36:00;102496.34;;;22.53;24.12
57452;BME280;66031;51.224;-0.164;2023-02-28T08:38:27;102500.46;;;22.56;23.83
57452;BME280;66031;51.224;-0.164;2023-02-28T08:40:57;102508.54;;;22.89;23.25
57452;BME280;66031;51.224;-0.164;2023-02-28T08:43:16;102507.86;;;23.19;23.00
57452;BME280;66031;51.224;-0.164;2023-02-28T08:45:41;102501.84;;;22.96;23.26
57452;BME280;66031;51.224;-0.164;2023-02-28T08:48:07;102498.90;;;23.46;23.01
57452;BME280;66031;51.224;-0.164;2023-02-28T08:50:32;102502.51;;;23.47;22.71
57452;BME280;66031;51.224;-0.164;2023-02-28T08:52:57;102493.07;;;23.04;23.01
57452;BME280;66031;51.224;-0.164;2023-02-28T08:55:23;102494.20;;;22.93;23.33
57452;BME280;66031;51.224;-0.164;2023-02-28T08:57:48;102497.59;;;22.70;23.52
57452;BME280;66031;51.224;-0.164;2023-02-28T09:00:14;102495.72;;;22.60;23.82
57452;BME280;66031;51.224;-0.164;2023-02-28T09:02:38;102494.72;;;22.37;24.00
57452;BME280;66031;51.224;-0.164;2023-02-28T09:05:04;102489.25;;;22.22;24.16
57452;BME280;66031;51.224;-0.164;2023-02-28T09:07:29;102486.19;;;21.99;24.35
57452;BME280;66031;51.224;-0.164;2023-02-28T09:09:54;102486.44;;;21.94;24.45
57452;BME280;66031;51.224;-0.164;2023-02-28T09:12:20;102489.82;;;22.02;24.59
57452;BME280;66031;51.224;-0.164;2023-02-28T09:14:45;102489.49;;;21.86;24.63
57452;BME280;66031;51.224;-0.164;2023-02-28T09:17:10;102483.52;;;22.01;24.49
57452;BME280;66031;51.224;-0.164;2023-02-28T09:19:35;102489.11;;;21.95;24.56
57452;BME280;66031;51.224;-0.164;2023-02-28T09:22:01;102492.53;;;21.91;24.57
57452;BME280;66031;51.224;-0.164;2023-02-28T09:24:26;102484.84;;;21.88;24.65
57452;BME280;66031;51.224;-0.164;2023-02-28T09:26:51;102486.81;;;21.72;24.74
57452;BME280;66031;51.224;-0.164;2023-02-28T09:29:17;102491.52;;;21.56;24.87
57452;BME280;66031;51.224;-0.164;2023-02-28T09:31:42;102493.08;;;21.51;24.89
57452;BME280;66031;51.224;-0.164;2023-02-28T09:34:07;102478.98;;;21.41;24.98
57452;BME280;66031;51.224;-0.164;2023-02-28T09:36:32;102476.75;;;21.57;25.03
57452;BME280;66031;51.224;-0.164;2023-02-28T09:38:58;102469.32;;;21.22;25.13
57452;BME280;66031;51.224;-0.164;2023-02-28T09:41:24;102467.62;;;21.02;25.30
57452;BME280;66031;51.224;-0.164;2023-02-28T09:43:51;102471.45;;;20.95;25.32
57452;BME280;66031;51.224;-0.164;2023-02-28T09:46:25;102466.56;;;21.16;25.35
57452;BME280;66031;51.224;-0.164;2023-02-28T09:48:42;102463.55;;;21.08;25.38
57452;BME280;66031;51.224;-0.164;2023-02-28T09:51:14;102463.52;;;21.33;25.36
57452;BME280;66031;51.224;-0.164;2023-02-28T09:53:32;102460.42;;;21.16;25.50
57452;BME280;66031;51.224;-0.164;2023-02-28T09:55:58;102458.80;;;20.74;25.65
57452;BME280;66031;51.224;-0.164;2023-02-28T09:58:26;102455.42;;;20.97;25.65
57452;BME280;66031;51.224;-0.164;2023-02-28T10:00:54;102461.07;;;20.92;25.70
57452;BME280;66031;51.224;-0.164;2023-02-28T10:03:25;102459.71;;;20.96;25.66
57452;BME280;66031;51.224;-0.164;2023-02-28T10:05:39;102463.66;;;20.81;25.78
57452;BME280;66031;51.224;-0.164;2023-02-28T10:08:07;102466.55;;;20.73;25.83
57452;BME280;66031;51.224;-0.164;2023-02-28T10:10:29;102467.66;;;20.49;25.79
57452;BME280;66031;51.224;-0.164;2023-02-28T10:12:54;102461.86;;;20.67;25.85
57452;BME280;66031;51.224;-0.164;2023-02-28T10:15:17;102464.89;;;20.52;25.72
57452;BME280;66031;51.224;-0.164;2023-02-28T10:17:45;102467.79;;;20.21;25.83
57452;BME280;66031;51.224;-0.164;2023-02-28T10:20:12;102473.26;;;20.74;25.83
57452;BME280;66031;51.224;-0.164;2023-02-28T10:22:37;102467.75;;;20.57;25.83
57452;BME280;66031;51.224;-0.164;2023-02-28T10:24:59;102469.54;;;20.50;26.40
57452;BME280;66031;51.224;-0.164;2023-02-28T10:27:27;102477.17;;;20.39;26.62
57452;BME280;66031;51.224;-0.164;2023-02-28T10:29:51;102475.18;;;20.76;26.43
57452;BME280;66031;51.224;-0.164;2023-02-28T10:32:17;102469.27;;;20.09;26.53
57452;BME280;66031;51.224;-0.164;2023-02-28T10:34:40;102465.78;;;20.37;26.48
57452;BME280;66031;51.224;-0.164;2023-02-28T10:37:05;102461.05;;;20.45;26.58
57452;BME280;66031;51.224;-0.164;2023-02-28T10:39:36;102454.96;;;20.36;26.60
57452;BME280;66031;51.224;-0.164;2023-02-28T10:41:56;102454.92;;;20.53;26.64
57452;BME280;66031;51.224;-0.164;2023-02-28T10:44:23;102451.77;;;20.22;26.66
57452;BME280;66031;51.224;-0.164;2023-02-28T10:46:47;102451.22;;;20.27;26.62
57452;BME280;66031;51.224;-0.164;2023-02-28T10:49:15;102448.43;;;20.24;26.56
57452;BME280;66031;51.224;-0.164;2023-02-28T10:51:39;102452.55;;;20.46;26.33
57452;BME280;66031;51.224;-0.164;2023-02-28T10:54:03;102456.05;;;20.08;26.42
57452;BME280;66031;51.224;-0.164;2023-02-28T10:56:28;102454.11;;;20.15;26.46
57452;BME280;66031;51.224;-0.164;2023-02-28T10:58:56;102447.21;;;20.44;26.57
57452;BME280;66031;51.224;-0.164;2023-02-28T11:01:21;102439.95;;;20.17;26.57
57452;BME280;66031;51.224;-0.164;2023-02-28T11:03:44;102433.71;;;20.17;26.55
57452;BME280;66031;51.224;-0.164;2023-02-28T11:06:15;102431.21;;;20.20;26.49
57452;BME280;66031;51.224;-0.164;2023-02-28T11:08:34;102437.43;;;20.25;26.42
57452;BME280;66031;51.224;-0.164;2023-02-28T11:11:04;102437.51;;;20.28;26.34
57452;BME280;66031;51.224;-0.164;2023-02-28T11:13:28;102433.98;;;20.19;26.44
57452;BME280;66031;51.224;-0.164;2023-02-28T11:15:52;102429.82;;;20.11;26.48
57452;BME280;66031;51.224;-0.164;2023-02-28T11:18:22;102434.70;;;19.91;26.39
57452;BME280;66031;51.224;-0.164;2023-02-28T11:20:41;102429.65;;;20.17;26.39
57452;BME280;66031;51.224;-0.164;2023-02-28T11:23:12;102420.82;;;20.13;26.40
57452;BME280;66031;51.224;-0.164;2023-02-28T11:25:34;102414.47;;;20.18;26.34
57452;BME280;66031;51.224;-0.164;2023-02-28T11:27:58;102417.14;;;20.32;26.42
57452;BME280;66031;51.224;-0.164;2023-02-28T11:30:25;102419.60;;;19.98;26.49
57452;BME280;66031;51.224;-0.164;2023-02-28T11:32:49;102415.70;;;19.73;26.47
57452;BME280;66031;51.224;-0.164;2023-02-28T11:35:18;102408.63;;;20.13;26.54
57452;BME280;66031;51.224;-0.164;2023-02-28T11:37:39;102401.53;;;19.87;26.52
57452;BME280;66031;51.224;-0.164;2023-02-28T11:40:09;102396.89;;;19.75;26.63
57452;BME280;66031;51.224;-0.164;2023-02-28T11:42:44;102396.67;;;19.73;26.62
57452;BME280;66031;51.224;-0.164;2023-02-28T11:45:04;102391.18;;;19.58;26.50
57452;BME280;66031;51.224;-0.164;2023-02-28T11:47:27;102380.78;;;19.79;26.54
57452;BME280;66031;51.224;-0.164;2023-02-28T11:49:53;102388.03;;;19.82;26.48
57452;BME280;66031;51.224;-0.164;2023-02-28T11:52:20;102406.36;;;19.71;26.53
57452;BME280;66031;51.224;-0.164;2023-02-28T11:54:47;102415.61;;;19.95;26.54
57452;BME280;66031;51.224;-0.164;2023-02-28T11:57:12;102405.49;;;19.60;26.61
57452;BME280;66031;51.224;-0.164;2023-02-28T11:59:40;102402.51;;;19.65;26.79
57452;BME280;66031;51.224;-0.164;2023-02-28T12:02:06;102396.35;;;19.75;26.69
57452;BME280;66031;51.224;-0.164;2023-02-28T12:04:25;102396.32;;;19.65;26.75
57452;BME280;66031;51.224;-0.164;2023-02-28T12:06:47;102398.01;;;19.70;26.71
57452;BME280;66031;51.224;-0.164;2023-02-28T12:09:20;102393.60;;;19.65;26.73
57452;BME280;66031;51.224;-0.164;2023-02-28T12:11:44;102393.60;;;19.40;26.75
57452;BME280;66031;51.224;-0.164;2023-02-28T12:16:37;102392.12;;;19.54;26.80
57452;BME280;66031;51.224;-0.164;2023-02-28T12:19:04;102379.45;;;19.68;26.63
57452;BME280;66031;51.224;-0.164;2023-02-28T12:21:22;102367.42;;;19.54;26.76
57452;BME280;66031;51.224;-0.164;2023-02-28T12:23:52;102351.77;;;19.64;26.85
57452;BME280;66031;51.224;-0.164;2023-02-28T12:26:14;102335.23;;;19.56;26.89
57452;BME280;66031;51.224;-0.164;2023-02-28T12:28:35;102316.62;;;19.09;26.86
57452;BME280;66031;51.224;-0.164;2023-02-28T12:31:00;102307.50;;;19.40;26.90
57452;BME280;66031;51.224;-0.164;2023-02-28T12:33:26;102301.78;;;19.57;27.03
57452;BME280;66031;51.224;-0.164;2023-02-28T12:35:51;102305.68;;;19.32;27.04
57452;BME280;66031;51.224;-0.164;2023-02-28T12:38:17;102309.13;;;19.38;26.97
57452;BME280;66031;51.224;-0.164;2023-02-28T12:40:44;102323.90;;;19.25;27.16